Time;durP1;ratioP1;P1;durP2;ratioP2;P2;SDS_P1;SDS_P2;PMS_P1;PMS_P2;Temp;Humidity;BMP_temperature;BMP_pressure;BME280_temperature;BME280_humidity;BME280_pressure;Samples;Min_cycle;Max_cycle;Signal;HPM_P1;HPM_P2
2023/01/05 00:01:53;;;;;;;0.47;0.47;;;;;;;11.04;64.30;100357.22;4465837;31;32380;-88
2023/01/05 00:04:26;;;;;;;0.65;0.65;;;;;;;11.17;64.02;100331.22;4468953;31;34027;-89
2023/01/05 00:06:56;;;;;;;0.45;0.45;;;;;;;10.62;65.67;100320.00;4458119;31;32736;-89
2023/01/05 00:09:26;;;;;;;0.28;0.28;;;;;;;10.40;66.58;100312.84;4475930;31;34665;-88
2023/01/05 00:23:16;;;;;;;0.30;0.30;;;;;;;10.62;66.49;100280.41;4469169;31;32472;-85
2023/01/05 00:25:45;;;;;;;0.52;0.52;;;;;;;11.15;64.91;100267.81;4465026;31;34365;-87
2023/01/05 00:28:12;;;;;;;0.47;0.47;;;;;;;10.69;66.57;100271.34;4458871;31;32588;-86
2023/01/05 00:30:43;;;;;;;1.15;1.15;;;;;;;10.45;67.35;100265.19;4483573;31;33690;-87
2023/01/05 00:33:15;;;;;;;1.45;1.37;;;;;;;10.56;67.23;100262.16;4471830;31;33514;-87
2023/01/05 00:35:43;;;;;;;0.33;0.33;;;;;;;10.41;67.48;100274.13;4484300;31;34183;-88
2023/01/05 00:38:11;;;;;;;1.65;1.50;;;;;;;10.72;66.31;100265.94;4470951;31;33426;-88
2023/01/05 00:40:39;;;;;;;3.35;0.93;;;;;;;10.56;66.84;100280.63;4474412;31;34493;-88
2023/01/05 00:43:08;;;;;;;0.37;0.37;;;;;;;10.43;67.13;100294.25;4471054;31;33529;-88
2023/01/05 00:45:35;;;;;;;0.73;0.73;;;;;;;10.97;65.55;100265.91;4469488;31;34723;-88
2023/01/05 00:48:04;;;;;;;2.70;2.17;;;;;;;10.44;67.00;100276.62;4467333;31;33266;-88
2023/01/05 00:50:32;;;;;;;0.43;0.43;;;;;;;10.16;67.95;100276.69;4476239;31;34066;-88
2023/01/05 00:53:00;;;;;;;9.65;1.45;;;;;;;10.43;67.25;100278.41;4474393;31;33417;-88
2023/01/05 00:55:29;;;;;;;1.50;1.40;;;;;;;10.30;67.52;100269.19;4474352;31;35402;-88
2023/01/05 00:57:58;;;;;;;0.73;0.73;;;;;;;10.78;66.10;100276.28;4470325;31;34766;-88
2023/01/05 01:00:26;;;;;;;1.20;1.20;;;;;;;10.74;66.09;100250.91;4470667;31;34019;-88
2023/01/05 01:02:54;;;;;;;0.52;0.52;;;;;;;10.34;67.43;100264.69;4470849;31;33340;-89
2023/01/05 01:05:22;;;;;;;1.17;0.60;;;;;;;10.88;65.54;100275.03;4461378;31;32640;-88
2023/01/05 01:07:51;;;;;;;1.20;0.68;;;;;;;10.61;66.57;100270.75;4473831;31;33825;-88
2023/01/05 01:10:20;;;;;;;1.77;1.67;;;;;;;10.90;65.58;100259.97;4468396;31;34556;-88
2023/01/05 01:12:52;;;;;;;1.37;1.27;;;;;;;10.86;65.24;100268.94;4481309;31;33821;-88
2023/01/05 01:15:20;;;;;;;2.47;2.28;;;;;;;10.28;67.20;100264.91;4457880;31;34552;-88
2023/01/05 01:17:48;;;;;;;1.83;1.33;;;;;;;10.40;67.26;100272.41;4469066;31;34470;-89
2023/01/05 01:20:16;;;;;;;1.35;1.20;;;;;;;10.41;67.39;100269.69;4481675;31;33819;-90
2023/01/05 01:22:44;;;;;;;0.88;0.82;;;;;;;10.40;67.45;100257.41;4475318;31;32203;-90
2023/01/05 01:25:13;;;;;;;4.03;1.37;;;;;;;10.37;67.10;100249.59;4489917;31;32580;-89
2023/01/05 01:27:52;;;;;;;0.75;0.75;;;;;;;9.89;68.60;100254.78;4473451;31;34226;-89
2023/01/05 01:30:27;;;;;;;4.05;1.75;;;;;;;9.66;69.67;100273.97;4484875;31;34428;-90
2023/01/05 01:32:56;;;;;;;0.60;0.60;;;;;;;10.53;66.62;100252.53;4478920;31;32457;-89
2023/01/05 01:35:26;;;;;;;2.87;1.52;;;;;;;10.65;65.77;100245.97;4476100;31;33364;-90
2023/01/05 01:37:55;;;;;;;3.87;0.98;;;;;;;10.21;66.88;100248.41;4466029;31;33572;-90
2023/01/05 01:40:24;;;;;;;0.43;0.43;;;;;;;10.17;67.42;100237.09;4465211;31;33018;-90
2023/01/05 01:42:54;;;;;;;1.02;1.02;;;;;;;10.21;67.67;100243.13;4486690;31;33353;-89
2023/01/05 01:45:24;;;;;;;0.65;0.65;;;;;;;10.59;66.18;100238.28;4468121;31;33530;-89
2023/01/05 01:47:59;;;;;;;1.20;1.10;;;;;;;10.82;65.17;100240.91;4473004;31;35239;-89
2023/01/05 01:50:32;;;;;;;1.27;1.10;;;;;;;10.63;65.65;100238.06;4472613;31;33163;-89
2023/01/05 01:53:20;;;;;;;0.85;0.82;;;;;;;10.47;66.35;100219.31;4471060;31;32561;-89
2023/01/05 01:55:48;;;;;;;2.45;1.45;;;;;;;10.06;67.99;100217.25;4480534;31;32270;-89
2023/01/05 01:58:18;;;;;;;1.37;1.33;;;;;;;10.13;67.46;100200.31;4480603;31;34344;-88
2023/01/05 02:00:46;;;;;;;0.82;0.82;;;;;;;10.47;66.65;100219.31;4470819;31;33808;-87
2023/01/05 02:03:14;;;;;;;1.75;1.65;;;;;;;10.43;66.20;100209.78;4466746;31;32288;-88
2023/01/05 02:05:51;;;;;;;0.57;0.57;;;;;;;10.19;67.30;100186.88;4473643;31;33890;-87
2023/01/05 02:08:30;;;;;;;3.33;1.73;;;;;;;10.15;67.62;100217.78;4457542;31;32263;-87
2023/01/05 02:11:19;;;;;;;0.45;0.35;;;;;;;10.48;66.35;100191.97;4469447;31;34227;-87
2023/01/05 02:14:10;;;;;;;0.75;0.75;;;;;;;10.15;67.59;100206.37;4484452;31;32750;-87
2023/01/05 02:16:57;;;;;;;3.90;0.77;;;;;;;10.27;67.04;100211.25;4466553;31;32964;-87
2023/01/05 02:19:50;;;;;;;1.60;1.50;;;;;;;10.63;65.70;100209.03;4488030;31;33969;-87
2023/01/05 02:22:28;;;;;;;4.85;1.08;;;;;;;10.41;66.45;100197.56;4480695;31;34174;-88
2023/01/05 02:25:24;;;;;;;0.95;0.95;;;;;;;10.18;66.83;100190.44;4473409;31;32073;-89
2023/01/05 02:30:53;;;;;;;0.95;0.95;;;;;;;10.24;67.09;100175.25;4491746;31;34653;-87
2023/01/05 02:33:40;;;;;;;0.57;0.55;;;;;;;10.35;66.69;100181.94;4481085;31;33280;-87
2023/01/05 02:36:19;;;;;;;3.40;1.73;;;;;;;10.21;67.19;100171.88;4470940;31;32372;-88
2023/01/05 02:39:18;;;;;;;0.13;0.13;;;;;;;10.29;67.06;100172.47;4477532;31;34090;-87
2023/01/05 02:42:17;;;;;;;0.62;0.62;;;;;;;10.28;67.04;100156.69;4476490;31;34202;-88
2023/01/05 02:44:46;;;;;;;1.62;1.52;;;;;;;10.29;66.79;100164.53;4465135;31;32936;-88
2023/01/05 02:47:24;;;;;;;0.90;0.90;;;;;;;10.28;66.85;100164.59;4463861;31;33608;-90
2023/01/05 02:50:01;;;;;;;0.90;0.88;;;;;;;10.45;66.41;100160.44;4469690;31;33356;-89
2023/01/05 02:53:05;;;;;;;0.30;0.30;;;;;;;10.50;66.16;100158.47;4472952;31;34487;-90
2023/01/05 02:55:57;;;;;;;1.15;1.08;;;;;;;10.37;66.70;100169.56;4461110;31;33960;-90
2023/01/05 02:58:31;;;;;;;2.97;1.70;;;;;;;10.42;66.45;100157.03;4477965;31;33028;-90
2023/01/05 03:01:21;;;;;;;1.58;1.48;;;;;;;10.29;66.43;100132.00;4457214;31;33177;-90
2023/01/05 03:04:04;;;;;;;0.82;0.82;;;;;;;10.32;66.88;100134.53;4480137;31;34689;-90
2023/01/05 03:06:32;;;;;;;2.35;1.85;;;;;;;10.24;67.22;100133.03;4473749;31;33689;-90
2023/01/05 03:09:04;;;;;;;0.32;0.32;;;;;;;10.39;66.63;100136.88;4481140;31;32876;-91
2023/01/05 03:14:32;;;;;;;1.10;0.90;;;;;;;10.32;66.66;100132.75;4485183;31;34316;-91
2023/01/05 03:17:00;;;;;;;0.88;0.88;;;;;;;10.49;66.46;100127.72;4471456;31;33883;-90
2023/01/05 03:19:38;;;;;;;0.52;0.52;;;;;;;10.58;65.70;100113.28;4469239;31;32822;-90
2023/01/05 03:36:59;;;;;;;0.90;0.90;;;;;;;10.13;67.23;100116.72;4474454;31;33117;-90
2023/01/05 03:39:30;;;;;;;1.12;1.12;;;;;;;10.47;66.94;100137.47;4469638;31;32720;-90
2023/01/05 03:41:59;;;;;;;0.65;0.65;;;;;;;10.10;68.06;100137.06;4462296;31;33502;-90
2023/01/05 03:44:27;;;;;;;2.70;2.22;;;;;;;10.05;68.62;100105.56;4476453;31;32984;-90
2023/01/05 03:46:56;;;;;;;0.95;0.95;;;;;;;9.88;69.35;100086.88;4468140;31;33056;-90
2023/01/05 03:49:25;;;;;;;1.42;1.30;;;;;;;9.34;71.72;100059.75;4467267;31;34064;-90
2023/01/05 03:51:52;;;;;;;1.42;1.33;;;;;;;9.70;70.74;100040.94;4471157;31;32557;-89
2023/01/05 03:54:21;;;;;;;2.78;2.58;;;;;;;10.05;69.39;100046.69;4471440;31;32859;-89
2023/01/05 03:56:50;;;;;;;1.65;1.55;;;;;;;9.68;70.84;100032.19;4471961;31;34501;-87
2023/01/05 03:59:18;;;;;;;0.77;0.77;;;;;;;9.88;70.40;100028.88;4473885;31;32807;-87
2023/01/05 04:01:48;;;;;;;0.47;0.30;;;;;;;9.93;70.51;100024.28;4465131;31;33128;-87
2023/01/05 04:04:16;;;;;;;0.90;0.90;;;;;;;10.51;68.62;100025.53;4466180;31;33721;-87
2023/01/05 04:06:45;;;;;;;0.57;0.57;;;;;;;10.80;67.34;100030.56;4454391;32;35130;-87
2023/01/05 04:09:13;;;;;;;7.60;2.17;;;;;;;10.50;68.14;100031.75;4459352;31;33449;-87
2023/01/05 04:11:42;;;;;;;2.40;1.23;;;;;;;10.11;69.80;100028.84;4478411;31;32161;-87
2023/01/05 04:14:10;;;;;;;0.40;0.40;;;;;;;10.63;68.11;100044.44;4462006;31;34025;-89
2023/01/05 04:16:38;;;;;;;1.17;1.12;;;;;;;10.44;68.38;100032.00;4466157;31;34079;-89
2023/01/05 04:19:09;;;;;;;2.28;0.93;;;;;;;10.42;68.73;100030.31;4471011;31;34265;-88
2023/01/05 04:21:41;;;;;;;1.77;1.40;;;;;;;10.48;68.33;100041.50;4471368;31;32866;-88
2023/01/05 04:24:10;;;;;;;1.10;1.10;;;;;;;10.14;69.06;100041.06;4475703;31;33981;-87
2023/01/05 04:26:42;;;;;;;0.15;0.15;;;;;;;10.31;69.19;100040.47;4472601;31;33405;-87
2023/01/05 04:29:12;;;;;;;1.98;1.83;;;;;;;10.80;66.87;100039.34;4459912;31;33023;-87
2023/01/05 04:31:42;;;;;;;2.22;1.25;;;;;;;10.40;68.61;100042.75;4457155;31;33482;-87
2023/01/05 04:34:10;;;;;;;0.93;0.90;;;;;;;10.47;68.11;100038.94;4486563;31;33920;-87
2023/01/05 04:36:42;;;;;;;1.45;0.73;;;;;;;10.59;67.83;100050.78;4458035;31;33190;-88
2023/01/05 04:39:15;;;;;;;2.05;1.50;;;;;;;10.39;68.21;100047.13;4470892;31;32213;-88
2023/01/05 04:41:43;;;;;;;1.05;0.95;;;;;;;10.49;68.01;100043.25;4467683;31;32475;-90
2023/01/05 04:44:19;;;;;;;1.40;0.82;;;;;;;10.38;68.43;100023.44;4477241;31;33663;-89
2023/01/05 04:46:47;;;;;;;1.02;1.02;;;;;;;10.41;67.93;100018.91;4464677;31;34278;-89
2023/01/05 04:49:16;;;;;;;0.82;0.82;;;;;;;10.75;66.95;100028.13;4457482;31;34042;-88
2023/01/05 04:51:48;;;;;;;1.53;1.43;;;;;;;10.88;66.01;100016.13;4472378;31;33698;-88
2023/01/05 04:54:17;;;;;;;1.35;1.25;;;;;;;10.89;65.81;100031.06;4455926;31;32966;-88
2023/01/05 04:56:46;;;;;;;0.43;0.43;;;;;;;11.06;65.23;100029.47;4465076;31;34306;-88
2023/01/05 04:59:14;;;;;;;1.23;0.62;;;;;;;10.70;66.50;100019.53;4460359;31;33772;-88
2023/01/05 05:01:44;;;;;;;2.37;2.20;;;;;;;10.26;68.31;100022.16;4467008;31;32329;-88
2023/01/05 05:04:12;;;;;;;1.48;1.37;;;;;;;10.10;68.69;100013.06;4476090;31;33524;-87
2023/01/05 05:06:40;;;;;;;1.58;1.48;;;;;;;10.36;68.33;100012.97;4474344;31;32941;-87
2023/01/05 05:11:43;;;;;;;1.12;0.93;;;;;;;10.22;68.70;100010.81;4483995;31;33837;-87
2023/01/05 05:14:11;;;;;;;0.30;0.30;;;;;;;10.44;68.58;100007.34;4453142;31;33998;-87
2023/01/05 05:16:43;;;;;;;0.62;0.62;;;;;;;10.83;66.45;100015.47;4473011;31;34332;-87
2023/01/05 05:19:18;;;;;;;0.60;0.60;;;;;;;10.68;67.08;100009.03;4458719;31;32720;-88
2023/01/05 05:21:49;;;;;;;0.47;0.47;;;;;;;10.25;68.05;100009.84;4458345;31;33523;-88
2023/01/05 05:24:18;;;;;;;0.98;0.98;;;;;;;10.32;68.31;100008.72;4473250;31;32929;-88
2023/01/05 05:26:50;;;;;;;1.62;1.48;;;;;;;10.30;68.29;99999.97;4466638;31;33330;-88
2023/01/05 05:29:20;;;;;;;2.87;2.28;;;;;;;10.48;67.87;99983.41;4465728;31;32606;-88
2023/01/05 05:31:49;;;;;;;1.15;1.05;;;;;;;10.26;68.22;99982.56;4457141;31;33135;-88
2023/01/05 05:34:20;;;;;;;1.73;1.35;;;;;;;10.66;67.00;99986.22;4464214;31;32374;-88
2023/01/05 05:36:49;;;;;;;3.67;3.40;;;;;;;10.77;66.41;99989.28;4469993;31;33499;-88
2023/01/05 05:39:18;;;;;;;0.93;0.93;;;;;;;10.77;66.35;99986.66;4483699;31;33571;-86
2023/01/05 05:41:47;;;;;;;0.30;0.30;;;;;;;10.46;66.60;99974.72;4480774;31;32748;-86
2023/01/05 05:44:17;;;;;;;0.50;0.50;;;;;;;10.45;67.17;99983.56;4467162;31;33117;-86
2023/01/05 05:46:46;;;;;;;0.20;0.20;;;;;;;10.71;66.18;99994.81;4469631;31;33573;-87
2023/01/05 05:49:15;;;;;;;0.62;0.62;;;;;;;10.10;67.54;99984.03;4467523;32;33252;-88
2023/01/05 05:51:44;;;;;;;1.85;0.60;;;;;;;9.99;68.16;99985.31;4464523;31;32606;-88
2023/01/05 05:54:19;;;;;;;0.15;0.15;;;;;;;10.16;67.69;99991.72;4474077;31;34590;-88
2023/01/05 05:56:48;;;;;;;0.75;0.75;;;;;;;10.06;68.05;99974.53;4485480;31;33398;-88
2023/01/05 05:59:19;;;;;;;0.62;0.40;;;;;;;10.00;68.12;99981.75;4474418;31;32380;-87
2023/01/05 06:01:48;;;;;;;0.57;0.57;;;;;;;10.20;67.35;99988.03;4486875;31;33487;-87
2023/01/05 06:04:19;;;;;;;3.25;1.60;;;;;;;9.99;68.02;99969.50;4463024;31;32546;-87
2023/01/05 06:06:51;;;;;;;2.22;1.27;;;;;;;10.18;67.48;99963.50;4489422;31;33857;-88
2023/01/05 06:09:20;;;;;;;2.22;2.10;;;;;;;10.05;67.80;99984.22;4462832;31;32856;-89
2023/01/05 06:11:48;;;;;;;10.20;4.18;;;;;;;9.69;69.16;99997.03;4477238;31;32964;-90
2023/01/05 06:14:30;;;;;;;0.40;0.40;;;;;;;10.20;67.21;100009.16;4476952;31;33804;-90
2023/01/05 06:17:03;;;;;;;1.52;1.42;;;;;;;9.68;69.20;99996.16;4473471;31;34181;-90
2023/01/05 06:19:32;;;;;;;0.22;0.22;;;;;;;9.74;68.99;99997.72;4480952;31;33017;-90
2023/01/05 06:22:02;;;;;;;0.77;0.77;;;;;;;9.96;68.41;99984.56;4471286;31;32998;-90
2023/01/05 06:24:31;;;;;;;0.00;0.00;;;;;;;9.99;67.73;99980.03;4460531;32;34355;-90
2023/01/05 06:27:04;;;;;;;1.98;1.87;;;;;;;9.95;67.81;99982.84;4465794;31;33867;-90
2023/01/05 06:29:36;;;;;;;2.15;1.90;;;;;;;9.79;67.76;99976.47;4475843;31;33927;-90
2023/01/05 06:32:05;;;;;;;1.02;1.00;;;;;;;10.10;67.03;99970.84;4469149;31;32639;-90
2023/01/05 06:34:34;;;;;;;0.68;0.68;;;;;;;9.93;66.71;99961.81;4469641;31;33837;-90
2023/01/05 06:37:05;;;;;;;0.45;0.45;;;;;;;9.92;66.78;99946.94;4464545;31;33015;-90
2023/01/05 06:39:35;;;;;;;0.70;0.70;;;;;;;9.53;67.15;99957.19;4465177;31;32922;-90
2023/01/05 06:42:03;;;;;;;1.65;1.02;;;;;;;9.70;66.82;99949.50;4471345;31;32078;-90
2023/01/05 06:44:32;;;;;;;0.30;0.30;;;;;;;9.74;66.50;99937.94;4456667;32;32806;-90
2023/01/05 06:47:22;;;;;;;0.20;0.20;;;;;;;9.72;66.38;99931.84;4464067;31;34334;-88
2023/01/05 06:49:52;;;;;;;1.27;1.17;;;;;;;9.85;65.84;99929.59;4462593;31;33258;-89
2023/01/05 06:52:25;;;;;;;0.08;0.08;;;;;;;9.77;65.83;99928.16;4472930;31;33451;-89
2023/01/05 06:54:55;;;;;;;0.93;0.93;;;;;;;9.94;65.21;99921.34;4499534;31;34109;-86
2023/01/05 06:57:25;;;;;;;1.17;1.08;;;;;;;9.75;65.51;99909.78;4481036;31;34103;-86
2023/01/05 06:59:53;;;;;;;2.22;1.45;;;;;;;9.64;65.74;99914.63;4478786;31;32673;-86
2023/01/05 07:02:23;;;;;;;1.37;1.27;;;;;;;9.69;65.73;99918.78;4471264;31;33469;-87
2023/01/05 07:04:52;;;;;;;0.82;0.82;;;;;;;10.07;64.04;99919.09;4467799;31;33896;-87
2023/01/05 07:07:20;;;;;;;1.27;1.17;;;;;;;10.01;63.13;99919.31;4474239;31;34281;-87
2023/01/05 07:09:56;;;;;;;1.92;1.65;;;;;;;9.47;65.17;99916.09;4469216;32;33436;-89
2023/01/05 07:12:34;;;;;;;8.27;2.85;;;;;;;9.44;65.65;99903.03;4479047;31;35019;-86
2023/01/05 07:15:06;;;;;;;0.88;0.88;;;;;;;9.74;64.51;99900.16;4485931;31;33828;-87
2023/01/05 07:17:38;;;;;;;0.65;0.65;;;;;;;9.45;65.31;99898.62;4470952;31;33741;-90
2023/01/05 07:20:08;;;;;;;0.60;0.57;;;;;;;9.31;66.30;99896.50;4468417;31;33916;-89
2023/01/05 07:22:36;;;;;;;2.22;2.05;;;;;;;9.32;66.26;99902.63;4480735;31;33301;-89
2023/01/05 07:25:05;;;;;;;4.07;1.17;;;;;;;9.23;66.37;99901.19;4460209;32;33859;-89
2023/01/05 07:27:34;;;;;;;1.33;1.23;;;;;;;9.30;66.42;99907.94;4465072;31;33232;-89
2023/01/05 07:30:04;;;;;;;2.60;1.20;;;;;;;9.12;67.32;99927.06;4465589;32;32634;-91
2023/01/05 07:32:32;;;;;;;1.95;1.85;;;;;;;9.13;67.65;99919.09;4465566;31;32500;-91
2023/01/05 07:37:44;;;;;;;1.40;1.30;;;;;;;9.62;65.97;99919.06;4482126;31;34637;-92
2023/01/05 07:40:19;;;;;;;3.65;3.30;;;;;;;9.71;66.06;99921.34;4468252;31;34303;-91
2023/01/05 07:42:52;;;;;;;2.95;2.72;;;;;;;9.80;65.33;99899.91;4491904;31;33863;-90
2023/01/05 07:45:21;;;;;;;1.12;1.12;;;;;;;8.96;68.60;99910.94;4455540;31;33077;-90
2023/01/05 07:47:56;;;;;;;2.72;2.55;;;;;;;8.89;69.37;99899.78;4470849;32;34122;-90
2023/01/05 07:50:32;;;;;;;;;;;;;;;9.49;67.56;99887.91;4472646;31;33118;-91
2023/01/05 07:53:05;;;;;;;4.05;2.28;;;;;;;9.30;67.78;99900.03;4466904;31;32153;-90
2023/01/05 07:55:36;;;;;;;5.50;3.40;;;;;;;9.18;68.42;99889.97;4467455;31;34563;-90
2023/01/05 07:58:10;;;;;;;2.00;1.30;;;;;;;9.13;69.02;99891.91;4449383;31;32660;-90
2023/01/05 08:00:43;;;;;;;0.70;0.70;;;;;;;9.90;66.82;99880.16;4458338;31;33700;-90
2023/01/05 08:03:18;;;;;;;4.07;2.80;;;;;;;9.60;67.38;99887.50;4465918;31;34019;-90
2023/01/05 08:05:47;;;;;;;1.23;1.20;;;;;;;9.49;68.52;99910.75;4469192;31;32312;-90
2023/01/05 08:08:18;;;;;;;1.80;1.70;;;;;;;9.36;69.31;99913.00;4472251;31;33659;-90
2023/01/05 08:10:52;;;;;;;1.65;1.55;;;;;;;9.42;69.09;99902.22;4459642;31;33157;-90
2023/01/05 08:16:09;;;;;;;11.63;2.97;;;;;;;9.54;69.64;99898.25;4488182;31;33718;-90
2023/01/05 08:18:38;;;;;;;3.00;2.45;;;;;;;9.60;69.20;99899.84;4473271;31;33606;-90
2023/01/05 08:21:14;;;;;;;1.98;1.87;;;;;;;9.62;69.56;99880.38;4462714;32;32955;-90
2023/01/05 08:23:44;;;;;;;1.52;1.42;;;;;;;9.90;68.78;99877.53;4475675;31;33581;-90
2023/01/05 08:26:21;;;;;;;1.05;1.02;;;;;;;9.93;68.72;99866.88;4478708;31;32477;-90
2023/01/05 08:28:52;;;;;;;1.37;1.27;;;;;;;9.80;69.39;99860.34;4488711;31;33043;-90
2023/01/05 08:31:25;;;;;;;0.57;0.57;;;;;;;9.99;68.72;99866.63;4460984;31;32204;-90
2023/01/05 08:33:58;;;;;;;6.93;2.60;;;;;;;9.98;69.00;99886.00;4466812;31;32916;-90
2023/01/05 08:36:27;;;;;;;3.47;2.20;;;;;;;10.24;68.50;99881.47;4468005;31;33332;-90
2023/01/05 08:39:00;;;;;;;4.30;2.80;;;;;;;10.18;68.78;99874.62;4460625;31;33887;-90
2023/01/05 08:41:36;;;;;;;0.55;0.55;;;;;;;10.51;67.54;99861.00;4468525;31;33390;-90
2023/01/05 08:44:07;;;;;;;;;;;;;;;10.52;67.15;99875.91;4480910;31;32100;-90
2023/01/05 08:46:36;;;;;;;1.50;1.45;;;;;;;10.07;68.52;99883.94;4465388;32;33118;-90
2023/01/05 08:49:07;;;;;;;1.40;1.30;;;;;;;10.03;69.58;99877.06;4457566;31;32955;-90
2023/01/05 08:51:38;;;;;;;1.35;1.25;;;;;;;9.91;69.86;99873.09;4476440;31;33046;-90
2023/01/05 08:54:06;;;;;;;2.75;2.25;;;;;;;9.83;70.61;99883.97;4445763;31;33173;-90
2023/01/05 08:56:43;;;;;;;1.98;1.80;;;;;;;9.92;70.76;99885.38;4471473;31;33400;-91
2023/01/05 08:59:17;;;;;;;2.30;2.12;;;;;;;10.51;68.92;99861.00;4474193;31;33720;-91
2023/01/05 09:01:47;;;;;;;4.18;2.17;;;;;;;10.44;68.85;99865.69;4464841;32;33623;-90
2023/01/05 09:04:17;;;;;;;1.58;1.17;;;;;;;10.49;69.37;99868.09;4458294;31;32042;-90
2023/01/05 09:06:46;;;;;;;1.05;1.02;;;;;;;10.41;69.72;99870.22;4460436;32;32408;-90
2023/01/05 09:09:14;;;;;;;2.10;1.02;;;;;;;10.62;69.49;99873.72;4460324;31;32981;-90
2023/01/05 09:11:43;;;;;;;0.65;0.65;;;;;;;10.52;69.72;99884.69;4462915;32;32997;-90
2023/01/05 09:14:17;;;;;;;1.00;0.95;;;;;;;10.78;69.21;99888.03;4473576;31;32934;-90
2023/01/05 09:16:53;;;;;;;1.00;1.00;;;;;;;10.44;70.47;99885.91;4465099;31;33027;-90
2023/01/05 09:19:36;;;;;;;3.42;1.75;;;;;;;10.74;69.67;99889.06;4475247;31;32913;-90
2023/01/05 09:22:05;;;;;;;0.60;0.60;;;;;;;10.85;69.20;99894.72;4464869;32;33053;-90
2023/01/05 09:24:34;;;;;;;1.45;0.62;;;;;;;11.02;68.80;99894.87;4457738;32;31910;-90
2023/01/05 09:27:06;;;;;;;0.37;0.32;;;;;;;11.09;68.53;99899.88;4455027;32;32984;-90
2023/01/05 09:29:38;;;;;;;0.30;0.30;;;;;;;11.10;68.45;99886.59;4453641;31;33849;-90
2023/01/05 09:32:19;;;;;;;1.58;1.48;;;;;;;11.02;68.81;99881.66;4471963;31;32869;-90
2023/01/05 09:34:51;;;;;;;5.30;2.78;;;;;;;10.99;69.57;99868.56;4462470;32;32648;-90
2023/01/05 09:37:39;;;;;;;0.85;0.75;;;;;;;11.01;70.14;99855.28;4467940;31;35555;-90
2023/01/05 09:40:12;;;;;;;1.00;1.00;;;;;;;11.40;69.29;99847.34;4456020;31;33021;-91
2023/01/05 09:42:43;;;;;;;2.95;0.77;;;;;;;11.48;69.91;99842.53;4474965;31;33508;-90
2023/01/05 09:45:12;;;;;;;1.13;1.03;;;;;;;11.46;70.59;99844.41;4479082;31;32195;-90
2023/01/05 09:47:43;;;;;;;2.92;1.95;;;;;;;11.28;69.91;99839.97;4483326;31;33950;-90
2023/01/05 09:50:21;;;;;;;0.85;0.85;;;;;;;11.53;69.97;99827.31;4469085;31;32173;-91
2023/01/05 09:53:00;;;;;;;3.58;1.95;;;;;;;11.70;68.83;99823.88;4476140;31;34564;-91
2023/01/05 09:55:31;;;;;;;1.25;0.90;;;;;;;12.05;67.94;99824.84;4468322;31;32795;-91
2023/01/05 09:58:04;;;;;;;0.30;0.30;;;;;;;11.74;68.90;99825.47;4479218;31;32971;-91
2023/01/05 10:00:32;;;;;;;0.98;0.77;;;;;;;11.99;68.62;99813.72;4459497;31;32955;-90
2023/01/05 10:03:08;;;;;;;0.28;0.28;;;;;;;12.23;66.62;99808.97;4476552;31;33601;-91
2023/01/05 10:05:58;;;;;;;0.13;0.13;;;;;;;12.17;67.19;99807.50;4461022;31;31849;-91
2023/01/05 10:08:39;;;;;;;0.73;0.73;;;;;;;12.54;66.52;99806.50;4468886;31;32713;-91
2023/01/05 10:14:18;;;;;;;0.60;0.60;;;;;;;12.69;66.24;99777.50;4476224;31;32621;-91
2023/01/05 10:16:50;;;;;;;0.17;0.17;;;;;;;12.65;65.88;99778.59;4468342;31;32277;-91
2023/01/05 10:19:43;;;;;;;1.00;0.52;;;;;;;12.54;66.32;99790.59;4468419;31;33141;-91
2023/01/05 10:22:31;;;;;;;0.30;0.30;;;;;;;12.23;67.44;99787.81;4493622;31;34765;-91
2023/01/05 10:25:17;;;;;;;0.63;0.53;;;;;;;12.10;68.34;99789.34;4471877;31;32824;-91
2023/01/05 10:28:12;;;;;;;0.08;0.08;;;;;;;12.46;67.89;99784.84;4483417;31;32666;-91
2023/01/05 10:30:52;;;;;;;0.25;0.25;;;;;;;12.44;67.35;99813.22;4487651;31;34666;-91
2023/01/05 10:33:39;;;;;;;0.85;0.80;;;;;;;12.89;66.58;99806.44;4489221;31;33776;-91
2023/01/05 10:36:35;;;;;;;0.20;0.20;;;;;;;12.91;66.29;99793.94;4472145;31;32458;-90
2023/01/05 10:39:54;;;;;;;0.08;0.08;;;;;;;12.75;67.00;99806.31;4487454;31;35330;-90
2023/01/05 10:42:49;;;;;;;0.82;0.52;;;;;;;12.78;67.25;99806.16;4474410;31;32670;-91
2023/01/05 10:45:29;;;;;;;0.00;0.00;;;;;;;12.96;66.89;99801.66;4481222;31;35749;-90
2023/01/05 10:47:58;;;;;;;2.65;0.28;;;;;;;12.87;67.17;99797.72;4468773;31;33352;-90
2023/01/05 10:50:46;;;;;;;0.90;0.90;;;;;;;13.08;66.58;99785.94;4474106;31;33699;-91
2023/01/05 10:53:24;;;;;;;1.05;0.68;;;;;;;13.26;66.02;99799.19;4461413;31;32725;-90
2023/01/05 10:56:28;;;;;;;1.02;0.98;;;;;;;13.26;65.75;99793.88;4465579;31;34195;-90
2023/01/05 10:59:11;;;;;;;0.35;0.35;;;;;;;12.81;66.04;99800.69;4465762;31;32428;-90
2023/01/05 11:01:45;;;;;;;0.20;0.20;;;;;;;12.94;65.69;99793.78;4474230;31;34008;-89
2023/01/05 11:04:18;;;;;;;0.15;0.15;;;;;;;13.04;65.49;99800.31;4472905;31;33282;-88
2023/01/05 11:07:07;;;;;;;2.15;1.95;;;;;;;12.37;68.66;99813.59;4485439;31;34579;-88
2023/01/05 11:09:40;;;;;;;0.75;0.35;;;;;;;12.84;67.41;99823.53;4473772;31;34373;-88
2023/01/05 11:12:19;;;;;;;0.57;0.50;;;;;;;12.97;67.33;99829.88;4475566;31;32335;-88
2023/01/05 11:14:55;;;;;;;5.12;0.45;;;;;;;13.22;66.84;99824.16;4463108;31;33265;-89
2023/01/05 11:17:28;;;;;;;0.52;0.52;;;;;;;12.91;67.73;99817.78;4463368;31;33439;-89
2023/01/05 11:19:57;;;;;;;0.62;0.62;;;;;;;12.75;68.00;99840.75;4470582;31;36135;-88
2023/01/05 11:22:37;;;;;;;4.80;1.02;;;;;;;12.45;69.04;99838.75;4482309;31;32518;-88
2023/01/05 11:25:28;;;;;;;0.17;0.13;;;;;;;13.01;66.89;99842.03;4484816;31;33638;-89
2023/01/05 11:28:15;;;;;;;1.10;1.00;;;;;;;13.14;66.22;99842.22;4485187;31;35159;-88
2023/01/05 11:30:57;;;;;;;0.50;0.50;;;;;;;12.72;67.85;99847.09;4473236;31;33836;-88
2023/01/05 11:33:40;;;;;;;0.75;0.75;;;;;;;12.47;68.99;99862.50;4483142;31;34066;-87
2023/01/05 11:36:14;;;;;;;0.22;0.20;;;;;;;12.29;70.01;99869.56;4483855;31;34970;-87
2023/01/05 11:38:43;;;;;;;0.25;0.20;;;;;;;12.45;69.67;99869.66;4469678;31;33946;-88
2023/01/05 11:41:13;;;;;;;0.10;0.10;;;;;;;12.51;69.27;99880.81;4461328;32;33830;-88
2023/01/05 11:43:45;;;;;;;1.10;1.08;;;;;;;12.26;70.27;99897.06;4466000;31;32698;-88
2023/01/05 11:46:16;;;;;;;0.15;0.15;;;;;;;11.84;72.37;99894.69;4478176;31;33150;-88
2023/01/05 11:48:55;;;;;;;0.80;0.68;;;;;;;11.89;72.29;99889.19;4475077;31;33023;-88
2023/01/05 11:51:41;;;;;;;0.22;0.22;;;;;;;12.06;71.57;99886.59;4457728;32;32501;-88
2023/01/05 11:54:34;;;;;;;0.30;0.30;;;;;;;12.11;71.63;99886.37;4451845;32;32687;-88
2023/01/05 11:57:17;;;;;;;1.27;0.45;;;;;;;12.26;71.08;99875.88;4454417;32;33179;-88
2023/01/05 11:59:58;;;;;;;1.35;0.70;;;;;;;12.35;70.70;99857.84;4475089;31;33662;-88
2023/01/05 12:02:57;;;;;;;0.47;0.47;;;;;;;12.43;70.62;99856.47;4472897;32;34732;-87
2023/01/05 12:05:58;;;;;;;0.93;0.93;;;;;;;12.49;70.70;99861.50;4487287;31;32557;-88
2023/01/05 12:08:45;;;;;;;0.50;0.43;;;;;;;12.12;71.50;99867.75;4464278;32;33937;-88
2023/01/05 12:11:21;;;;;;;0.62;0.62;;;;;;;12.17;71.21;99871.03;4472603;31;34300;-87
2023/01/05 12:14:09;;;;;;;0.70;0.70;;;;;;;12.09;71.90;99885.56;4463021;31;34140;-88
2023/01/05 12:16:49;;;;;;;0.20;0.20;;;;;;;12.09;72.05;99888.22;4471384;32;32160;-88
2023/01/05 12:22:26;;;;;;;2.30;0.90;;;;;;;12.34;70.38;99893.16;4490517;31;33359;-87
2023/01/05 12:25:27;;;;;;;0.10;0.10;;;;;;;11.94;71.02;99885.38;4474441;31;32524;-87
2023/01/05 12:28:29;;;;;;;0.43;0.28;;;;;;;12.07;70.57;99892.75;4466054;31;32929;-87
2023/01/05 12:31:41;;;;;;;1.02;1.00;;;;;;;12.08;70.79;99903.25;4470522;32;33527;-87
2023/01/05 12:34:43;;;;;;;0.52;0.50;;;;;;;12.24;70.42;99906.84;4492159;31;34720;-87
2023/01/05 12:37:24;;;;;;;0.10;0.10;;;;;;;12.31;69.94;99891.53;4484937;31;33817;-87
2023/01/05 12:40:07;;;;;;;0.25;0.25;;;;;;;12.16;70.42;99882.56;4471364;31;33903;-87
2023/01/05 12:43:06;;;;;;;0.88;0.88;;;;;;;11.99;71.03;99886.00;4467285;32;32671;-87
2023/01/05 12:45:47;;;;;;;0.50;0.50;;;;;;;11.86;71.59;99886.66;4483049;31;33750;-88
2023/01/05 12:48:26;;;;;;;0.37;0.37;;;;;;;12.04;71.21;99875.22;4481420;31;32908;-87
2023/01/05 12:51:05;;;;;;;0.35;0.13;;;;;;;12.26;70.48;99862.63;4475374;31;33680;-87
2023/01/05 12:53:37;;;;;;;0.32;0.32;;;;;;;12.14;70.76;99855.28;4476328;31;33848;-87